Time;durP1;ratioP1;P1;durP2;ratioP2;P2;SDS_P1;SDS_P2;PMS_P1;PMS_P2;Temp;Humidity;BMP_temperature;BMP_pressure;BME280_temperature;BME280_humidity;BME280_pressure;Samples;Min_cycle;Max_cycle;Signal;HPM_P1;HPM_P2
2023/01/24 00:00:32;;;;;;;;;;;3.70;99.90;;;;;;5133998;27;19982;-56
2023/01/24 00:02:57;;;;;;;;;;;3.70;99.90;;;;;;5134566;27;20286;-56
2023/01/24 00:05:23;;;;;;;;;;;3.70;99.90;;;;;;5134598;27;19907;-56
2023/01/24 00:07:48;;;;;;;;;;;3.70;99.90;;;;;;5125088;27;19930;-56
2023/01/24 00:10:14;;;;;;;;;;;3.70;99.90;;;;;;5114114;28;19915;-56
2023/01/24 00:12:39;;;;;;;;;;;3.70;99.90;;;;;;5128572;27;20357;-56
2023/01/24 00:15:05;;;;;;;;;;;3.70;99.90;;;;;;5131809;27;19947;-56
2023/01/24 00:17:30;;;;;;;;;;;3.70;99.90;;;;;;5119232;27;19908;-56
2023/01/24 00:19:56;;;;;;;;;;;3.70;99.90;;;;;;5115588;27;19919;-56
2023/01/24 00:22:22;;;;;;;;;;;3.70;99.90;;;;;;5113564;27;20240;-56
2023/01/24 00:24:48;;;;;;;;;;;3.70;99.90;;;;;;5117201;27;19911;-56
2023/01/24 00:27:14;;;;;;;;;;;3.70;99.90;;;;;;5132949;27;19958;-57
2023/01/24 00:29:40;;;;;;;;;;;3.70;99.90;;;;;;5115396;27;20002;-56
2023/01/24 00:32:05;;;;;;;;;;;3.70;99.90;;;;;;5131669;27;20433;-56
2023/01/24 00:34:30;;;;;;;;;;;3.70;99.90;;;;;;5120646;27;19919;-56
2023/01/24 00:36:56;;;;;;;;;;;3.70;99.90;;;;;;5112110;28;19912;-56
2023/01/24 00:39:21;;;;;;;;;;;3.70;99.90;;;;;;5116544;27;20430;-56
2023/01/24 00:41:47;;;;;;;;;;;3.70;99.90;;;;;;5123392;27;19912;-56
2023/01/24 00:44:12;;;;;;;;;;;3.70;99.90;;;;;;5133165;27;19946;-56
2023/01/24 00:46:38;;;;;;;;;;;3.70;99.90;;;;;;5132781;27;19968;-56
2023/01/24 00:49:03;;;;;;;;;;;3.70;99.90;;;;;;5132649;27;19915;-56
2023/01/24 00:51:29;;;;;;;;;;;3.70;99.90;;;;;;5125114;27;20007;-56
2023/01/24 00:53:54;;;;;;;;;;;3.70;99.90;;;;;;5122769;27;19919;-56
2023/01/24 00:56:20;;;;;;;;;;;3.70;99.90;;;;;;5130334;27;19907;-57
2023/01/24 00:58:47;;;;;;;;;;;3.70;99.90;;;;;;5128630;27;20404;-56
2023/01/24 01:01:12;;;;;;;;;;;3.70;99.90;;;;;;5113300;28;19947;-56
2023/01/24 01:03:38;;;;;;;;;;;3.70;99.90;;;;;;5120532;27;19931;-56
2023/01/24 01:06:07;;;;;;;;;;;3.60;99.90;;;;;;5129163;27;19919;-56
2023/01/24 01:08:33;;;;;;;;;;;3.60;99.90;;;;;;5133620;28;19970;-56
2023/01/24 01:10:58;;;;;;;;;;;3.60;99.90;;;;;;5132085;28;20437;-56
2023/01/24 01:13:25;;;;;;;;;;;3.60;99.90;;;;;;5123396;28;19918;-56
2023/01/24 01:15:50;;;;;;;;;;;3.60;99.90;;;;;;5128777;28;19907;-56
2023/01/24 01:18:16;;;;;;;;;;;3.60;99.90;;;;;;5130742;27;19960;-56
2023/01/24 01:20:41;;;;;;;;;;;3.70;99.90;;;;;;5135775;27;19911;-56
2023/01/24 01:23:07;;;;;;;;;;;3.60;99.90;;;;;;5137800;27;19908;-57
2023/01/24 01:25:32;;;;;;;;;;;3.60;99.90;;;;;;5137003;27;19936;-56
2023/01/24 01:27:58;;;;;;;;;;;3.60;99.90;;;;;;5137572;27;20604;-56
2023/01/24 01:30:23;;;;;;;;;;;3.70;99.90;;;;;;5137764;27;20269;-56
2023/01/24 01:32:49;;;;;;;;;;;3.60;99.90;;;;;;5136733;27;19959;-57
2023/01/24 01:35:14;;;;;;;;;;;3.60;99.90;;;;;;5136750;27;20058;-56
2023/01/24 01:37:40;;;;;;;;;;;3.60;99.90;;;;;;5136444;27;19911;-56
2023/01/24 01:40:06;;;;;;;;;;;3.60;99.90;;;;;;5117992;27;19919;-56
2023/01/24 01:42:46;;;;;;;;;;;3.60;99.90;;;;;;5116195;28;20399;-56
2023/01/24 01:45:32;;;;;;;;;;;3.60;99.90;;;;;;5116373;28;19916;-56
2023/01/24 01:47:59;;;;;;;;;;;3.60;99.90;;;;;;5130688;27;20010;-56
2023/01/24 01:50:34;;;;;;;;;;;3.60;99.90;;;;;;5125390;27;19967;-56
2023/01/24 01:52:59;;;;;;;;;;;3.60;99.90;;;;;;5123528;27;19983;-57
2023/01/24 01:55:29;;;;;;;;;;;3.60;99.90;;;;;;5123577;27;20449;-56
2023/01/24 01:57:55;;;;;;;;;;;3.60;99.90;;;;;;5136952;27;19974;-57
2023/01/24 02:00:21;;;;;;;;;;;3.70;99.90;;;;;;5123769;27;19916;-56
2023/01/24 02:02:50;;;;;;;;;;;3.60;99.90;;;;;;5116864;27;19991;-56
2023/01/24 02:05:18;;;;;;;;;;;3.60;99.90;;;;;;5130522;27;19915;-56
2023/01/24 02:07:46;;;;;;;;;;;3.70;99.90;;;;;;5114586;27;19927;-56
2023/01/24 02:10:12;;;;;;;;;;;3.70;99.90;;;;;;5114934;27;19916;-57
2023/01/24 02:12:39;;;;;;;;;;;3.70;99.90;;;;;;5116025;27;19919;-56
2023/01/24 02:17:56;;;;;;;;;;;3.70;99.90;;;;;;5135820;27;20372;-56
2023/01/24 02:20:42;;;;;;;;;;;3.70;99.90;;;;;;5118773;27;19912;-56
2023/01/24 02:23:14;;;;;;;;;;;3.60;99.90;;;;;;5114571;27;19973;-56
2023/01/24 02:25:58;;;;;;;;;;;3.60;99.90;;;;;;5130879;27;19961;-56
2023/01/24 02:28:23;;;;;;;;;;;3.70;99.90;;;;;;5114708;28;20350;-56
2023/01/24 02:30:49;;;;;;;;;;;3.70;99.90;;;;;;5116627;27;20409;-56
2023/01/24 02:33:18;;;;;;;;;;;3.70;99.90;;;;;;5134499;27;20398;-56
2023/01/24 02:35:45;;;;;;;;;;;3.70;99.90;;;;;;5123014;27;19957;-56
2023/01/24 02:38:14;;;;;;;;;;;3.70;99.90;;;;;;5117902;27;19908;-56
2023/01/24 02:40:40;;;;;;;;;;;3.70;99.90;;;;;;5114730;28;19911;-56
2023/01/24 02:43:06;;;;;;;;;;;3.70;99.90;;;;;;5115991;27;19919;-56
2023/01/24 02:45:33;;;;;;;;;;;3.70;99.90;;;;;;5133148;27;19911;-56
2023/01/24 02:47:59;;;;;;;;;;;3.70;99.90;;;;;;5113988;27;19927;-56
2023/01/24 02:50:26;;;;;;;;;;;3.70;99.90;;;;;;5117401;27;19915;-56
2023/01/24 02:58:30;;;;;;;;;;;3.70;99.90;;;;;;5037153;27;20037;-56
2023/01/24 03:00:56;;;;;;;;;;;3.70;99.90;;;;;;5135006;27;20250;-57
2023/01/24 03:03:21;;;;;;;;;;;3.70;99.90;;;;;;5134489;27;19947;-56
2023/01/24 03:05:56;;;;;;;;;;;3.70;99.90;;;;;;5134421;27;20025;-56
2023/01/24 03:08:31;;;;;;;;;;;3.70;99.90;;;;;;5135771;27;19941;-56
2023/01/24 03:10:57;;;;;;;;;;;3.70;99.90;;;;;;5133139;27;19911;-56
2023/01/24 03:35:17;;;;;;;;;;;3.60;99.90;;;;;;5121671;27;19927;-56
2023/01/24 03:40:26;;;;;;;;;;;3.60;99.90;;;;;;5125871;27;19933;-56
2023/01/24 03:42:52;;;;;;;;;;;3.60;99.90;;;;;;5134644;27;19934;-56
2023/01/24 03:45:21;;;;;;;;;;;3.60;99.90;;;;;;5118302;27;20362;-57
2023/01/24 03:47:55;;;;;;;;;;;3.60;99.90;;;;;;5116370;27;19916;-56
2023/01/24 03:53:09;;;;;;;;;;;3.60;99.90;;;;;;5133479;27;20048;-56
2023/01/24 03:55:34;;;;;;;;;;;3.60;99.90;;;;;;5134538;27;19919;-56
2023/01/24 03:58:00;;;;;;;;;;;3.60;99.90;;;;;;5134776;27;19908;-57
2023/01/24 04:00:25;;;;;;;;;;;3.60;99.90;;;;;;5133042;27;20438;-56
2023/01/24 04:02:51;;;;;;;;;;;3.60;99.90;;;;;;5134617;27;19954;-56
2023/01/24 04:05:17;;;;;;;;;;;3.60;99.90;;;;;;5133739;27;19911;-56
2023/01/24 04:07:42;;;;;;;;;;;3.60;99.90;;;;;;5133755;27;19919;-57
2023/01/24 04:10:09;;;;;;;;;;;3.60;99.90;;;;;;5131967;27;20318;-56
2023/01/24 04:12:34;;;;;;;;;;;3.60;99.90;;;;;;5132939;27;19911;-56
2023/01/24 04:14:59;;;;;;;;;;;3.60;99.90;;;;;;5133848;27;20011;-56
2023/01/24 04:17:25;;;;;;;;;;;3.60;99.90;;;;;;5134467;27;20316;-56
2023/01/24 04:19:50;;;;;;;;;;;3.60;99.90;;;;;;5133228;27;20084;-56
2023/01/24 04:22:16;;;;;;;;;;;3.60;99.90;;;;;;5122798;27;19918;-56
2023/01/24 04:24:43;;;;;;;;;;;3.60;99.90;;;;;;5113686;28;20040;-57
2023/01/24 04:27:08;;;;;;;;;;;3.60;99.90;;;;;;5120601;27;20391;-56
2023/01/24 04:29:33;;;;;;;;;;;3.60;99.90;;;;;;5112139;27;20405;-57
2023/01/24 04:31:59;;;;;;;;;;;3.60;99.90;;;;;;5114153;27;19911;-56
2023/01/24 04:34:24;;;;;;;;;;;3.60;99.90;;;;;;5113038;28;19937;-56
2023/01/24 04:36:50;;;;;;;;;;;3.60;99.90;;;;;;5128430;27;19912;-56
2023/01/24 04:39:15;;;;;;;;;;;3.60;99.90;;;;;;5130951;27;20270;-56
2023/01/24 04:41:41;;;;;;;;;;;3.60;99.90;;;;;;5127861;27;20045;-56
2023/01/24 04:44:06;;;;;;;;;;;3.60;99.90;;;;;;5112062;28;19908;-56
2023/01/24 04:46:32;;;;;;;;;;;3.60;99.90;;;;;;5116306;27;19916;-56
2023/01/24 04:48:57;;;;;;;;;;;3.60;99.90;;;;;;5115442;27;19985;-56
2023/01/24 04:51:23;;;;;;;;;;;3.60;99.90;;;;;;5131427;27;19916;-56
2023/01/24 04:53:48;;;;;;;;;;;3.60;99.90;;;;;;5131672;27;20332;-56
2023/01/24 04:56:13;;;;;;;;;;;3.60;99.90;;;;;;5115557;27;20024;-56
2023/01/24 04:58:39;;;;;;;;;;;3.60;99.90;;;;;;5126291;27;19911;-56
2023/01/24 05:01:04;;;;;;;;;;;3.60;99.90;;;;;;5124257;27;20015;-56
2023/01/24 05:03:30;;;;;;;;;;;3.60;99.90;;;;;;5115347;28;19957;-56
2023/01/24 05:05:56;;;;;;;;;;;3.60;99.90;;;;;;5128683;27;19908;-56
2023/01/24 05:08:21;;;;;;;;;;;3.60;99.90;;;;;;5131641;28;19915;-56
2023/01/24 05:10:47;;;;;;;;;;;3.60;99.90;;;;;;5124868;28;19911;-56
2023/01/24 05:13:12;;;;;;;;;;;3.60;99.90;;;;;;5133049;28;19908;-56
2023/01/24 05:15:38;;;;;;;;;;;3.60;99.90;;;;;;5133619;28;19908;-56
2023/01/24 05:18:04;;;;;;;;;;;3.60;99.90;;;;;;5131757;28;19907;-56
2023/01/24 05:20:30;;;;;;;;;;;3.60;99.90;;;;;;5129898;28;19919;-57
2023/01/24 05:22:58;;;;;;;;;;;3.60;99.90;;;;;;5115953;28;19919;-56
2023/01/24 05:25:24;;;;;;;;;;;3.60;99.90;;;;;;5123177;28;19918;-57
2023/01/24 05:27:49;;;;;;;;;;;3.60;99.90;;;;;;5127861;28;19920;-56
2023/01/24 05:30:15;;;;;;;;;;;3.60;99.90;;;;;;5112346;28;19912;-56
2023/01/24 05:32:40;;;;;;;;;;;3.50;99.90;;;;;;5112130;28;19914;-56
2023/01/24 05:35:06;;;;;;;;;;;3.50;99.90;;;;;;5113202;28;19933;-56
2023/01/24 05:37:32;;;;;;;;;;;3.50;99.90;;;;;;5112277;28;20254;-56
2023/01/24 05:39:57;;;;;;;;;;;3.60;99.90;;;;;;5116744;28;19911;-56
2023/01/24 05:42:22;;;;;;;;;;;3.50;99.90;;;;;;5133399;28;19908;-56
2023/01/24 05:44:48;;;;;;;;;;;3.50;99.90;;;;;;5133290;28;19994;-57
2023/01/24 05:47:13;;;;;;;;;;;3.50;99.90;;;;;;5132377;28;19923;-56
2023/01/24 05:49:39;;;;;;;;;;;3.60;99.90;;;;;;5132276;28;20243;-56
2023/01/24 05:52:04;;;;;;;;;;;3.50;99.90;;;;;;5132294;28;20141;-56
2023/01/24 05:54:30;;;;;;;;;;;3.50;99.90;;;;;;5132259;28;19951;-56
2023/01/24 05:56:55;;;;;;;;;;;3.50;99.90;;;;;;5133166;28;19912;-56
2023/01/24 05:59:21;;;;;;;;;;;3.50;99.90;;;;;;5131430;28;20373;-56
2023/01/24 06:01:46;;;;;;;;;;;3.50;99.90;;;;;;5132273;28;19918;-56
2023/01/24 06:04:12;;;;;;;;;;;3.50;99.90;;;;;;5125700;27;19978;-56
2023/01/24 06:06:37;;;;;;;;;;;3.50;99.90;;;;;;5115440;28;20271;-56
2023/01/24 06:09:03;;;;;;;;;;;3.50;99.90;;;;;;5124782;27;20454;-56
2023/01/24 06:11:29;;;;;;;;;;;3.50;99.90;;;;;;5130955;27;19912;-56
2023/01/24 06:13:55;;;;;;;;;;;3.50;99.90;;;;;;5114412;28;19963;-56
2023/01/24 06:16:22;;;;;;;;;;;3.50;99.90;;;;;;5126503;27;19955;-56
2023/01/24 06:18:48;;;;;;;;;;;3.50;99.90;;;;;;5123041;27;19919;-57
2023/01/24 06:21:26;;;;;;;;;;;3.50;99.90;;;;;;5117348;27;19915;-56
2023/01/24 06:23:51;;;;;;;;;;;3.40;99.90;;;;;;5118748;27;19911;-56
2023/01/24 06:26:17;;;;;;;;;;;3.40;99.90;;;;;;5135807;27;19918;-56
2023/01/24 06:28:42;;;;;;;;;;;3.40;99.90;;;;;;5116802;27;19922;-56
2023/01/24 06:31:19;;;;;;;;;;;3.50;99.90;;;;;;5115399;27;20368;-56
2023/01/24 06:33:53;;;;;;;;;;;3.40;99.90;;;;;;5118947;27;19911;-57
2023/01/24 06:36:19;;;;;;;;;;;3.40;99.90;;;;;;5133218;27;19978;-56
2023/01/24 06:38:44;;;;;;;;;;;3.50;99.90;;;;;;5129101;27;20321;-56
2023/01/24 06:41:14;;;;;;;;;;;3.40;99.90;;;;;;5130933;27;19911;-56
2023/01/24 06:43:39;;;;;;;;;;;3.40;99.90;;;;;;5134456;27;20022;-56
2023/01/24 06:46:05;;;;;;;;;;;3.40;99.90;;;;;;5135096;27;19943;-56
2023/01/24 06:48:30;;;;;;;;;;;3.40;99.90;;;;;;5134553;27;19934;-58
2023/01/24 06:50:56;;;;;;;;;;;3.40;99.90;;;;;;5136029;27;19994;-57
2023/01/24 06:53:21;;;;;;;;;;;3.40;99.90;;;;;;5135933;27;19907;-56
2023/01/24 06:55:47;;;;;;;;;;;3.30;99.90;;;;;;5119920;27;20065;-56
2023/01/24 06:58:13;;;;;;;;;;;3.30;99.90;;;;;;5123248;27;19911;-57
2023/01/24 07:00:38;;;;;;;;;;;3.40;99.90;;;;;;5134988;27;20312;-56
2023/01/24 07:03:06;;;;;;;;;;;3.30;99.90;;;;;;5135087;27;19953;-57
2023/01/24 07:05:31;;;;;;;;;;;3.30;99.90;;;;;;5135720;27;20285;-57
2023/01/24 07:07:57;;;;;;;;;;;3.30;99.90;;;;;;5135602;27;19919;-56
2023/01/24 07:10:22;;;;;;;;;;;3.30;99.90;;;;;;5134025;27;19915;-55
2023/01/24 07:12:48;;;;;;;;;;;3.30;99.90;;;;;;5129782;27;20377;-57
2023/01/24 07:15:13;;;;;;;;;;;3.30;99.90;;;;;;5134708;27;19936;-57
2023/01/24 07:17:39;;;;;;;;;;;3.30;99.90;;;;;;5133189;27;19977;-57
2023/01/24 07:20:05;;;;;;;;;;;3.30;99.90;;;;;;5117885;27;19998;-56
2023/01/24 07:22:31;;;;;;;;;;;3.30;99.90;;;;;;5114886;28;20016;-56
2023/01/24 07:24:57;;;;;;;;;;;3.30;99.90;;;;;;5114341;28;19907;-56
2023/01/24 07:27:22;;;;;;;;;;;3.30;99.90;;;;;;5114354;28;20243;-56
2023/01/24 07:29:48;;;;;;;;;;;3.30;99.90;;;;;;5123878;27;19918;-57
2023/01/24 07:32:13;;;;;;;;;;;3.30;99.90;;;;;;5118738;27;20358;-56
2023/01/24 07:34:38;;;;;;;;;;;3.30;99.90;;;;;;5116805;27;19912;-57
2023/01/24 07:37:07;;;;;;;;;;;3.30;99.90;;;;;;5134197;27;19907;-57
2023/01/24 07:39:32;;;;;;;;;;;3.30;99.90;;;;;;5118920;27;19911;-56
2023/01/24 07:41:58;;;;;;;;;;;3.30;99.90;;;;;;5120760;27;19921;-57
2023/01/24 07:44:23;;;;;;;;;;;3.30;99.90;;;;;;5118418;27;19916;-56
2023/01/24 07:46:49;;;;;;;;;;;3.30;99.90;;;;;;5118877;27;20263;-57
2023/01/24 07:49:14;;;;;;;;;;;3.30;99.90;;;;;;5114522;28;19908;-56
2023/01/24 07:51:40;;;;;;;;;;;3.30;99.90;;;;;;5125741;27;19962;-56
2023/01/24 07:54:06;;;;;;;;;;;3.30;99.90;;;;;;5133896;27;19923;-57
2023/01/24 07:56:31;;;;;;;;;;;3.30;99.90;;;;;;5133354;27;19919;-56
2023/01/24 07:58:57;;;;;;;;;;;3.30;99.90;;;;;;5132045;27;19912;-56
2023/01/24 08:01:23;;;;;;;;;;;3.40;99.90;;;;;;5133319;27;19907;-56
2023/01/24 08:03:49;;;;;;;;;;;3.30;99.90;;;;;;5132953;27;20018;-56
2023/01/24 08:06:15;;;;;;;;;;;3.30;99.90;;;;;;5132635;27;19919;-56
2023/01/24 08:08:40;;;;;;;;;;;3.40;99.90;;;;;;5129258;27;20382;-56
2023/01/24 08:11:06;;;;;;;;;;;3.30;99.90;;;;;;5133090;27;19950;-56
2023/01/24 08:13:32;;;;;;;;;;;3.40;99.90;;;;;;5132170;27;19947;-56
2023/01/24 08:15:58;;;;;;;;;;;3.40;99.90;;;;;;5132874;27;19908;-56
2023/01/24 08:18:24;;;;;;;;;;;3.40;99.90;;;;;;5131982;27;19919;-56
2023/01/24 08:20:53;;;;;;;;;;;3.40;99.90;;;;;;5128716;27;19911;-56
2023/01/24 08:23:18;;;;;;;;;;;3.40;99.90;;;;;;5133752;27;19911;-56
2023/01/24 08:25:44;;;;;;;;;;;3.40;99.90;;;;;;5121337;27;20381;-56
2023/01/24 08:28:09;;;;;;;;;;;3.40;99.90;;;;;;5111741;28;19926;-56
2023/01/24 08:30:35;;;;;;;;;;;3.40;99.90;;;;;;5119881;27;20020;-56
2023/01/24 08:33:04;;;;;;;;;;;3.40;99.90;;;;;;5116985;27;19915;-56
2023/01/24 08:35:30;;;;;;;;;;;3.40;99.90;;;;;;5124244;27;19911;-57
2023/01/24 08:37:56;;;;;;;;;;;3.40;99.90;;;;;;5121613;27;19947;-56
2023/01/24 08:40:21;;;;;;;;;;;3.50;99.90;;;;;;5113297;28;19995;-56
2023/01/24 08:42:47;;;;;;;;;;;3.50;99.90;;;;;;5112456;28;19918;-56
2023/01/24 08:45:12;;;;;;;;;;;3.50;99.90;;;;;;5113314;28;19988;-56
2023/01/24 08:47:38;;;;;;;;;;;3.50;99.90;;;;;;5113549;28;19981;-56
2023/01/24 08:50:03;;;;;;;;;;;3.50;99.90;;;;;;5112463;28;20370;-57
2023/01/24 08:52:29;;;;;;;;;;;3.50;99.90;;;;;;5115767;27;19934;-56
2023/01/24 08:54:54;;;;;;;;;;;3.50;99.90;;;;;;5113905;28;19919;-56
2023/01/24 08:57:20;;;;;;;;;;;3.50;99.90;;;;;;5112348;28;20001;-56
2023/01/24 08:59:45;;;;;;;;;;;3.50;99.90;;;;;;5112894;28;19968;-55
2023/01/24 09:02:13;;;;;;;;;;;3.50;99.90;;;;;;5119189;27;19912;-56
2023/01/24 09:04:38;;;;;;;;;;;3.50;99.90;;;;;;5131302;27;19919;-56
2023/01/24 09:07:04;;;;;;;;;;;3.50;99.90;;;;;;5124816;27;19923;-56
2023/01/24 09:09:29;;;;;;;;;;;3.50;99.90;;;;;;5125584;27;20324;-57
2023/01/24 09:11:55;;;;;;;;;;;3.50;99.90;;;;;;5133646;28;19907;-56
2023/01/24 09:14:21;;;;;;;;;;;3.50;99.90;;;;;;5132735;28;19912;-56
2023/01/24 09:16:47;;;;;;;;;;;3.50;99.90;;;;;;5131778;28;20230;-56
2023/01/24 09:19:12;;;;;;;;;;;3.50;99.90;;;;;;5133579;28;20106;-57
2023/01/24 09:21:38;;;;;;;;;;;3.50;99.90;;;;;;5132567;28;19918;-57
2023/01/24 09:24:04;;;;;;;;;;;3.50;99.90;;;;;;5131618;28;19919;-57
2023/01/24 09:26:29;;;;;;;;;;;3.60;99.90;;;;;;5133517;28;19915;-57
2023/01/24 09:28:57;;;;;;;;;;;3.60;99.90;;;;;;5133439;28;19912;-57
2023/01/24 09:31:23;;;;;;;;;;;3.60;99.90;;;;;;5132707;28;19908;-57
2023/01/24 09:33:48;;;;;;;;;;;3.60;99.90;;;;;;5131520;28;19912;-56
2023/01/24 09:36:13;;;;;;;;;;;3.60;99.90;;;;;;5133391;28;19912;-56
2023/01/24 09:38:39;;;;;;;;;;;3.60;99.90;;;;;;5132512;28;20368;-56
2023/01/24 09:41:16;;;;;;;;;;;3.60;99.90;;;;;;5136282;27;19915;-56
2023/01/24 09:43:44;;;;;;;;;;;3.60;99.90;;;;;;5136365;27;20373;-57
2023/01/24 09:46:22;;;;;;;;;;;3.60;99.90;;;;;;5136742;27;19911;-56
2023/01/24 09:48:49;;;;;;;;;;;3.60;99.90;;;;;;5137144;27;20335;-56
2023/01/24 09:51:21;;;;;;;;;;;3.60;99.90;;;;;;5136617;27;19911;-56
2023/01/24 09:53:49;;;;;;;;;;;3.70;99.90;;;;;;5125650;27;19920;-57
2023/01/24 09:56:26;;;;;;;;;;;3.70;99.90;;;;;;5118888;27;19953;-56
2023/01/24 09:59:10;;;;;;;;;;;3.70;99.90;;;;;;5131483;27;19912;-56
2023/01/24 10:01:38;;;;;;;;;;;3.70;99.90;;;;;;5116608;28;19915;-56
2023/01/24 10:04:04;;;;;;;;;;;3.70;99.90;;;;;;5116450;28;20390;-56
2023/01/24 10:06:30;;;;;;;;;;;3.70;99.90;;;;;;5101980;27;20376;-56
2023/01/24 10:09:02;;;;;;;;;;;3.60;99.90;;;;;;5121677;27;19908;-56
2023/01/24 10:11:27;;;;;;;;;;;3.70;99.90;;;;;;5116418;28;19908;-56
2023/01/24 10:13:58;;;;;;;;;;;3.70;99.90;;;;;;5115761;27;19939;-56
2023/01/24 10:16:42;;;;;;;;;;;3.70;99.90;;;;;;5120045;27;19980;-57
2023/01/24 10:19:27;;;;;;;;;;;3.70;99.90;;;;;;5102562;27;20312;-57
2023/01/24 10:22:12;;;;;;;;;;;3.80;99.90;;;;;;5119125;27;20370;-57
2023/01/24 10:24:39;;;;;;;;;;;3.80;99.90;;;;;;5123281;27;19916;-57
2023/01/24 10:27:14;;;;;;;;;;;3.80;99.90;;;;;;5116902;27;19926;-56
2023/01/24 10:29:41;;;;;;;;;;;3.80;99.90;;;;;;5134706;27;19911;-56
2023/01/24 10:32:10;;;;;;;;;;;3.90;99.90;;;;;;5136546;27;19907;-57
2023/01/24 10:34:43;;;;;;;;;;;3.90;99.90;;;;;;5129619;27;19916;-57
2023/01/24 10:37:08;;;;;;;;;;;3.90;99.90;;;;;;5123976;27;20347;-56
2023/01/24 10:39:33;;;;;;;;;;;3.90;99.90;;;;;;5115824;28;19931;-57
2023/01/24 10:41:59;;;;;;;;;;;4.00;99.90;;;;;;5116231;27;19916;-56
2023/01/24 10:44:25;;;;;;;;;;;3.90;99.90;;;;;;5116467;28;20267;-56
2023/01/24 10:46:59;;;;;;;;;;;3.90;99.90;;;;;;5116250;28;19919;-56
2023/01/24 10:49:29;;;;;;;;;;;3.90;99.90;;;;;;5114925;28;19951;-56
2023/01/24 10:52:13;;;;;;;;;;;3.90;99.90;;;;;;5114477;28;19912;-56
2023/01/24 10:54:42;;;;;;;;;;;3.80;99.90;;;;;;5114509;28;19920;-56
2023/01/24 10:57:16;;;;;;;;;;;3.80;99.90;;;;;;5117585;27;19912;-56
2023/01/24 10:59:41;;;;;;;;;;;3.80;99.90;;;;;;5115413;28;19917;-57
2023/01/24 11:02:18;;;;;;;;;;;3.90;99.90;;;;;;5114711;28;19907;-57
2023/01/24 11:04:43;;;;;;;;;;;3.90;99.90;;;;;;5115418;28;20278;-57
2023/01/24 11:07:25;;;;;;;;;;;3.80;99.90;;;;;;5115248;28;19916;-56
2023/01/24 11:09:51;;;;;;;;;;;3.90;99.90;;;;;;5114527;28;19908;-56
2023/01/24 11:12:18;;;;;;;;;;;3.90;99.90;;;;;;5115264;28;20006;-57
2023/01/24 11:14:47;;;;;;;;;;;3.90;99.90;;;;;;5115130;28;19908;-56
2023/01/24 11:17:29;;;;;;;;;;;3.90;99.90;;;;;;5114442;28;19915;-56
2023/01/24 11:19:58;;;;;;;;;;;3.90;99.90;;;;;;5115114;28;19919;-56
2023/01/24 11:22:25;;;;;;;;;;;4.00;99.90;;;;;;5115015;28;20362;-56
2023/01/24 11:24:55;;;;;;;;;;;4.00;99.90;;;;;;5114101;28;19915;-56
2023/01/24 11:27:21;;;;;;;;;;;4.00;99.90;;;;;;5113955;27;19942;-57
2023/01/24 11:30:03;;;;;;;;;;;4.00;99.90;;;;;;5114295;28;20285;-56
2023/01/24 11:32:43;;;;;;;;;;;4.00;99.90;;;;;;5114807;28;19907;-56
2023/01/24 11:35:24;;;;;;;;;;;4.00;99.90;;;;;;5114838;28;19915;-56
2023/01/24 11:37:52;;;;;;;;;;;4.00;99.90;;;;;;5114020;28;20378;-56
2023/01/24 11:40:18;;;;;;;;;;;4.00;99.90;;;;;;5114717;28;19912;-56
2023/01/24 11:43:02;;;;;;;;;;;3.90;99.90;;;;;;5114640;28;19953;-56
2023/01/24 11:45:42;;;;;;;;;;;4.00;99.90;;;;;;5113724;28;20421;-57
2023/01/24 11:48:10;;;;;;;;;;;4.00;99.90;;;;;;5114516;28;19916;-57
2023/01/24 11:50:36;;;;;;;;;;;4.00;99.90;;;;;;5117347;27;20394;-57
2023/01/24 11:53:17;;;;;;;;;;;4.00;99.90;;;;;;5134191;27;19980;-56
2023/01/24 11:56:02;;;;;;;;;;;4.00;99.90;;;;;;5127737;27;19923;-56
2023/01/24 11:58:40;;;;;;;;;;;4.10;99.90;;;;;;5113549;28;19946;-56
2023/01/24 12:01:20;;;;;;;;;;;4.10;99.90;;;;;;5115343;27;19920;-56
2023/01/24 12:04:05;;;;;;;;;;;4.10;99.90;;;;;;5116207;27;19946;-56
2023/01/24 12:06:30;;;;;;;;;;;4.10;99.90;;;;;;5124714;27;19922;-56
2023/01/24 12:09:07;;;;;;;;;;;4.10;99.90;;;;;;5120231;27;19912;-57
2023/01/24 12:11:41;;;;;;;;;;;4.10;99.90;;;;;;5114050;28;19915;-57
2023/01/24 12:14:19;;;;;;;;;;;4.10;99.90;;;;;;5113347;28;19911;-57
2023/01/24 12:16:52;;;;;;;;;;;4.10;99.90;;;;;;5115127;27;19916;-57
2023/01/24 12:19:27;;;;;;;;;;;4.10;99.90;;;;;;5113249;28;19911;-56
2023/01/24 12:21:54;;;;;;;;;;;4.00;99.90;;;;;;5113802;28;19907;-56
2023/01/24 12:24:34;;;;;;;;;;;4.00;99.90;;;;;;5118047;27;19912;-56
2023/01/24 12:27:02;;;;;;;;;;;4.00;99.90;;;;;;5118845;27;19924;-56
2023/01/24 12:29:34;;;;;;;;;;;4.00;99.90;;;;;;5113038;27;19922;-56
2023/01/24 12:32:17;;;;;;;;;;;4.00;99.90;;;;;;5123176;27;20369;-56
2023/01/24 12:34:51;;;;;;;;;;;4.10;99.90;;;;;;5121270;27;19923;-57
2023/01/24 12:37:16;;;;;;;;;;;4.10;99.90;;;;;;5131688;27;19911;-56
2023/01/24 12:39:58;;;;;;;;;;;4.10;99.90;;;;;;5132995;27;19918;-56
2023/01/24 12:42:38;;;;;;;;;;;4.00;99.90;;;;;;5131190;27;20313;-56
2023/01/24 12:45:05;;;;;;;;;;;4.00;99.90;;;;;;5133042;27;19908;-56
2023/01/24 12:47:40;;;;;;;;;;;4.00;99.90;;;;;;5131662;27;19919;-56
2023/01/24 12:50:14;;;;;;;;;;;4.00;99.90;;;;;;5132927;27;19912;-56
2023/01/24 12:52:43;;;;;;;;;;;4.00;99.90;;;;;;5124793;27;19915;-56
2023/01/24 12:55:13;;;;;;;;;;;4.00;99.90;;;;;;5128200;27;19923;-56
2023/01/24 12:57:44;;;;;;;;;;;4.00;99.90;;;;;;5132398;27;19911;-56
2023/01/24 13:00:17;;;;;;;;;;;4.00;99.90;;;;;;5123944;27;19911;-56
2023/01/24 13:03:00;;;;;;;;;;;3.90;99.90;;;;;;5130652;27;19923;-56
2023/01/24 13:05:35;;;;;;;;;;;3.90;99.90;;;;;;5122268;27;20279;-56
2023/01/24 13:08:21;;;;;;;;;;;3.90;99.90;;;;;;5112991;28;19916;-56
2023/01/24 13:10:59;;;;;;;;;;;3.90;99.90;;;;;;5113241;28;19934;-56
2023/01/24 13:13:27;;;;;;;;;;;3.80;99.90;;;;;;5113308;28;19907;-56
2023/01/24 13:16:04;;;;;;;;;;;3.80;99.90;;;;;;5117699;28;19908;-56
2023/01/24 13:18:38;;;;;;;;;;;3.80;99.90;;;;;;5122902;27;19919;-56
2023/01/24 13:21:12;;;;;;;;;;;3.80;99.90;;;;;;5119929;28;19908;-56
2023/01/24 13:23:56;;;;;;;;;;;3.80;99.90;;;;;;5126268;27;19915;-56
2023/01/24 13:26:29;;;;;;;;;;;3.80;99.90;;;;;;5126732;27;19912;-56
2023/01/24 13:29:03;;;;;;;;;;;3.70;99.90;;;;;;5119762;28;19915;-56
2023/01/24 13:31:32;;;;;;;;;;;3.70;99.90;;;;;;5119103;28;19939;-56
2023/01/24 13:34:02;;;;;;;;;;;3.70;99.90;;;;;;5133665;27;19911;-56
2023/01/24 13:36:34;;;;;;;;;;;3.70;99.90;;;;;;5139475;27;19908;-56
2023/01/24 13:39:00;;;;;;;;;;;3.70;99.90;;;;;;5140382;27;19915;-56
2023/01/24 13:41:26;;;;;;;;;;;3.80;99.90;;;;;;5139264;27;20319;-56
2023/01/24 13:43:57;;;;;;;;;;;3.80;99.90;;;;;;5139418;27;19908;-55
2023/01/24 13:46:41;;;;;;;;;;;3.80;99.90;;;;;;5140056;27;19907;-56
2023/01/24 13:49:26;;;;;;;;;;;3.80;99.90;;;;;;5129061;27;19912;-56
2023/01/24 13:51:52;;;;;;;;;;;3.80;99.90;;;;;;5107548;28;20014;-56
2023/01/24 13:54:17;;;;;;;;;;;3.70;99.90;;;;;;5132245;27;20374;-56
2023/01/24 13:57:02;;;;;;;;;;;3.70;99.90;;;;;;5135991;27;19968;-56
2023/01/24 13:59:27;;;;;;;;;;;3.70;99.90;;;;;;5138461;27;19916;-55
2023/01/24 14:01:53;;;;;;;;;;;3.70;99.90;;;;;;5133170;27;20009;-56
2023/01/24 14:04:23;;;;;;;;;;;3.70;99.90;;;;;;5118154;28;19962;-56
2023/01/24 14:06:50;;;;;;;;;;;3.70;99.90;;;;;;5125376;27;19915;-56
2023/01/24 14:09:25;;;;;;;;;;;3.70;99.90;;;;;;5139038;27;19908;-56
2023/01/24 14:11:55;;;;;;;;;;;3.70;99.90;;;;;;5135096;27;19917;-56
2023/01/24 14:14:25;;;;;;;;;;;3.70;99.90;;;;;;5138847;27;19911;-56
2023/01/24 14:16:50;;;;;;;;;;;3.70;99.90;;;;;;5138916;27;19919;-56
2023/01/24 14:19:22;;;;;;;;;;;3.70;99.90;;;;;;5138158;27;19908;-56
2023/01/24 14:22:24;;;;;;;;;;;3.70;99.90;;;;;;5130056;27;19912;-56
2023/01/24 14:24:49;;;;;;;;;;;3.60;99.90;;;;;;5051070;28;19956;-57
2023/01/24 14:27:18;;;;;;;;;;;3.60;99.90;;;;;;5100432;27;19962;-56
2023/01/24 14:29:44;;;;;;;;;;;3.50;99.90;;;;;;5114132;27;20195;-56
2023/01/24 14:32:28;;;;;;;;;;;3.50;99.90;;;;;;5124141;27;19964;-56
2023/01/24 14:35:17;;;;;;;;;;;3.50;99.90;;;;;;5134315;27;19907;-55
2023/01/24 14:37:46;;;;;;;;;;;3.50;99.90;;;;;;5085400;28;19964;-56
2023/01/24 14:40:14;;;;;;;;;;;3.50;99.90;;;;;;5115033;27;19934;-56
2023/01/24 14:42:40;;;;;;;;;;;3.50;99.90;;;;;;5130264;27;20362;-55
2023/01/24 14:45:11;;;;;;;;;;;3.50;99.90;;;;;;5125352;27;19964;-54
2023/01/24 14:47:37;;;;;;;;;;;3.50;99.90;;;;;;5114964;27;19920;-56
2023/01/24 14:50:04;;;;;;;;;;;3.40;99.90;;;;;;5115586;28;19912;-56
2023/01/24 14:52:32;;;;;;;;;;;3.40;99.90;;;;;;5125938;27;20369;-56
2023/01/24 14:54:59;;;;;;;;;;;3.40;99.90;;;;;;5135210;27;19926;-56
2023/01/24 14:57:26;;;;;;;;;;;3.40;99.90;;;;;;5136696;27;19908;-56
2023/01/24 15:00:02;;;;;;;;;;;3.40;99.90;;;;;;5136024;27;19908;-56
2023/01/24 15:02:28;;;;;;;;;;;3.40;99.90;;;;;;5132985;27;19953;-56
2023/01/24 15:04:53;;;;;;;;;;;3.40;99.90;;;;;;5120005;27;20003;-56
2023/01/24 15:07:21;;;;;;;;;;;3.30;99.90;;;;;;5134433;27;20278;-56
2023/01/24 15:09:47;;;;;;;;;;;3.30;99.90;;;;;;5134870;27;19912;-56
2023/01/24 15:12:31;;;;;;;;;;;3.30;99.90;;;;;;5134209;27;20002;-56
2023/01/24 15:14:57;;;;;;;;;;;3.20;99.90;;;;;;5130638;27;20384;-56